createdAt,value
2022-11-15T00:01:10.901Z,22.60
2022-11-15T00:03:40.951Z,22.00
2022-11-15T00:06:11.005Z,21.40
2022-11-15T00:08:41.027Z,20.93
2022-11-15T00:11:15.856Z,22.17
2022-11-15T00:13:45.578Z,20.40
2022-11-15T00:16:15.383Z,22.83
2022-11-15T00:18:50.419Z,20.47
2022-11-15T00:21:21.406Z,23.33
2022-11-15T00:23:51.126Z,22.07
2022-11-15T00:26:23.447Z,21.50
2022-11-15T00:28:55.995Z,21.60
2022-11-15T00:31:25.723Z,21.20
2022-11-15T00:33:55.465Z,21.10
2022-11-15T00:36:25.189Z,21.57
2022-11-15T00:38:54.931Z,22.17
2022-11-15T00:41:27.281Z,21.50
2022-11-15T00:43:57.015Z,18.80
2022-11-15T00:46:26.744Z,21.93
2022-11-15T00:48:56.483Z,22.47
2022-11-15T00:51:26.212Z,20.33
2022-11-15T00:53:57.094Z,21.00
2022-11-15T00:56:29.460Z,20.63
2022-11-15T00:58:59.376Z,21.27
2022-11-15T01:01:29.310Z,20.63
2022-11-15T01:04:01.566Z,20.23
2022-11-15T01:06:31.639Z,23.20
2022-11-15T01:09:01.347Z,21.40
2022-11-15T01:11:33.646Z,18.67
2022-11-15T01:14:03.388Z,21.90
2022-11-15T01:16:33.992Z,20.87
2022-11-15T01:19:04.119Z,22.43
2022-11-15T01:21:33.992Z,21.37
2022-11-15T01:24:03.728Z,19.83
2022-11-15T01:26:36.071Z,23.40
2022-11-15T01:29:05.830Z,21.83
2022-11-15T01:31:35.595Z,23.83
2022-11-15T01:34:05.356Z,21.17
2022-11-15T01:36:35.099Z,21.43
2022-11-15T01:39:04.945Z,21.13
2022-11-15T01:41:37.695Z,22.67
2022-11-15T01:44:37.492Z,20.57
2022-11-15T01:47:12.163Z,18.77
2022-11-15T01:49:46.298Z,22.57
2022-11-15T01:52:22.946Z,23.03
2022-11-15T01:54:57.643Z,24.80
2022-11-15T01:57:30.426Z,21.23
2022-11-15T02:00:04.379Z,23.60
2022-11-15T02:02:35.413Z,25.23
2022-11-15T02:05:06.322Z,29.13
2022-11-15T02:07:38.260Z,26.53
2022-11-15T02:10:12.273Z,27.97
2022-11-15T02:12:45.483Z,27.07
2022-11-15T02:15:15.804Z,25.90
2022-11-15T02:17:59.227Z,26.93
2022-11-15T02:20:47.666Z,28.40
2022-11-15T02:23:58.955Z,25.07
2022-11-15T02:26:55.094Z,24.40
2022-11-15T02:29:38.991Z,26.23
2022-11-15T02:32:23.740Z,26.57
2022-11-15T02:35:00.639Z,27.97
2022-11-15T02:37:36.293Z,26.20
2022-11-15T02:40:14.691Z,29.27
2022-11-15T02:43:06.968Z,26.90
2022-11-15T02:45:43.331Z,24.43
2022-11-15T02:48:16.879Z,23.67
2022-11-15T02:50:47.873Z,25.33
2022-11-15T02:53:18.574Z,25.37
2022-11-15T02:55:52.609Z,26.33
2022-11-15T02:58:44.875Z,26.37
2022-11-15T03:01:26.102Z,22.83
2022-11-15T03:04:07.549Z,21.03
2022-11-15T03:06:46.982Z,23.00
2022-11-15T03:09:28.174Z,22.50
2022-11-15T03:12:03.406Z,22.83
2022-11-15T03:14:37.730Z,22.40
2022-11-15T03:17:16.120Z,26.27
2022-11-15T03:19:51.468Z,25.03
2022-11-15T03:22:24.732Z,23.07
2022-11-15T03:24:58.271Z,26.67
2022-11-15T03:27:35.787Z,27.60
2022-11-15T03:30:09.404Z,26.90
2022-11-15T03:32:44.475Z,23.83
2022-11-15T03:35:21.921Z,25.07
2022-11-15T03:37:56.766Z,26.53
2022-11-15T03:40:31.696Z,26.60
2022-11-15T03:43:11.537Z,24.40
2022-11-15T03:45:48.213Z,24.93
2022-11-15T03:48:22.832Z,25.23
2022-11-15T03:50:55.891Z,24.83
2022-11-15T03:53:25.752Z,25.53
2022-11-15T03:55:55.586Z,26.37
2022-11-15T03:58:27.953Z,25.87
2022-11-15T04:00:57.814Z,24.57
2022-11-15T04:03:27.631Z,28.67
2022-11-15T04:05:59.926Z,23.53
2022-11-15T04:08:29.625Z,26.37
2022-11-15T04:11:00.042Z,27.63
2022-11-15T04:13:32.248Z,27.17
2022-11-15T04:16:02.390Z,23.93
2022-11-15T04:18:32.131Z,27.00
2022-11-15T04:21:16.858Z,29.77
2022-11-15T04:24:01.662Z,25.20
2022-11-15T04:26:31.463Z,26.57
2022-11-15T04:29:13.576Z,24.73
2022-11-15T04:31:43.308Z,28.10
2022-11-15T04:34:13.012Z,27.17
2022-11-15T04:36:57.754Z,22.97
2022-11-15T04:39:28.646Z,26.63
2022-11-15T04:41:58.343Z,23.53
2022-11-15T04:44:28.091Z,28.83
2022-11-15T04:46:57.760Z,28.93
2022-11-15T04:49:27.569Z,27.47
2022-11-15T04:52:00.610Z,28.33
2022-11-15T04:54:30.349Z,27.33
2022-11-15T04:57:00.064Z,25.30
2022-11-15T04:59:30.039Z,25.87
2022-11-15T05:01:59.761Z,27.27
2022-11-15T05:04:27.619Z,27.73
2022-11-15T05:07:00.231Z,29.63
2022-11-15T05:09:30.007Z,31.97
2022-11-15T05:11:59.713Z,27.93
2022-11-15T05:14:30.366Z,26.53
2022-11-15T05:17:00.147Z,25.77
2022-11-15T05:19:30.038Z,26.63
2022-11-15T05:22:03.559Z,30.43
2022-11-15T05:24:33.445Z,24.87
2022-11-15T05:27:03.260Z,25.83
2022-11-15T05:29:33.093Z,28.17
2022-11-15T05:32:03.322Z,30.30
2022-11-15T05:34:33.140Z,27.93
2022-11-15T05:37:05.619Z,29.60
2022-11-15T05:39:35.688Z,27.77
2022-11-15T05:42:11.299Z,31.10
2022-11-15T05:44:45.067Z,31.30
2022-11-15T05:47:19.992Z,29.50
2022-11-15T05:49:52.465Z,28.73
2022-11-15T05:52:29.495Z,30.27
2022-11-15T05:55:00.669Z,31.07
2022-11-15T05:57:30.475Z,31.63
2022-11-15T06:00:00.410Z,31.37
2022-11-15T06:02:30.211Z,31.07
2022-11-15T06:04:59.992Z,35.10
2022-11-15T06:07:32.994Z,37.13
2022-11-15T06:10:03.089Z,35.00
2022-11-15T06:12:32.841Z,34.23
2022-11-15T06:15:02.589Z,42.33
2022-11-15T06:17:32.999Z,40.13
2022-11-15T06:20:02.800Z,37.57
2022-11-15T06:22:35.213Z,41.27
2022-11-15T06:25:05.783Z,36.30
2022-11-15T06:27:35.700Z,43.53
2022-11-15T06:30:05.443Z,38.77
2022-11-15T06:32:35.167Z,39.03
2022-11-15T06:35:06.030Z,39.23
2022-11-15T06:37:38.359Z,41.67
2022-11-15T06:40:09.472Z,39.67
2022-11-15T06:42:39.366Z,41.13
2022-11-15T06:45:10.220Z,45.20
2022-11-15T06:47:39.950Z,38.30
2022-11-15T06:50:10.919Z,41.40
2022-11-15T06:52:43.398Z,38.23
2022-11-15T06:55:13.153Z,37.97
2022-11-15T06:57:50.576Z,41.63
2022-11-15T07:00:22.154Z,39.63
2022-11-15T07:02:52.416Z,41.10
2022-11-15T07:05:22.132Z,50.13
2022-11-15T07:07:58.939Z,40.57
2022-11-15T07:10:29.543Z,38.77
2022-11-15T07:13:00.311Z,41.23
2022-11-15T07:15:30.402Z,46.87
2022-11-15T07:18:03.956Z,37.77
2022-11-15T07:20:33.717Z,38.70
2022-11-15T07:23:07.716Z,35.17
2022-11-15T07:25:37.591Z,42.03
2022-11-15T07:28:08.044Z,36.53
2022-11-15T07:30:43.991Z,35.00
2022-11-15T07:33:15.167Z,41.87
2022-11-15T07:35:47.546Z,39.77
2022-11-15T07:38:21.881Z,40.43
2022-11-15T07:40:59.403Z,35.87
2022-11-15T07:43:31.089Z,32.20
2022-11-15T07:46:01.070Z,37.97
2022-11-15T07:48:42.834Z,38.13
2022-11-15T07:51:16.055Z,40.00
2022-11-15T07:53:48.696Z,36.37
2022-11-15T07:56:18.839Z,40.70
2022-11-15T07:58:51.324Z,35.60
2022-11-15T08:01:21.164Z,32.23
2022-11-15T08:03:50.984Z,37.40
2022-11-15T08:06:20.712Z,37.57
2022-11-15T08:08:53.492Z,38.43
2022-11-15T08:11:23.198Z,32.33
2022-11-15T08:13:52.975Z,28.83
2022-11-15T08:16:22.712Z,32.10
2022-11-15T08:18:52.603Z,26.47
2022-11-15T08:21:23.764Z,34.57
2022-11-15T08:23:56.103Z,31.23
2022-11-15T08:26:26.023Z,28.67
2022-11-15T08:28:55.739Z,36.17
2022-11-15T08:31:25.827Z,30.10
2022-11-15T08:33:55.599Z,28.43
2022-11-15T08:36:25.447Z,30.10
2022-11-15T08:38:57.889Z,30.90
2022-11-15T08:41:32.193Z,29.87
2022-11-15T08:44:02.148Z,34.37
2022-11-15T08:46:31.948Z,31.93
2022-11-15T08:49:01.729Z,28.03
2022-11-15T08:51:31.552Z,28.17
2022-11-15T08:54:03.936Z,32.03
2022-11-15T08:56:33.764Z,38.03
2022-11-15T08:59:03.540Z,30.70
2022-11-15T09:01:33.777Z,29.03
2022-11-15T09:04:05.022Z,31.73
2022-11-15T09:06:34.792Z,32.07
2022-11-15T09:09:07.543Z,26.17
2022-11-15T09:11:37.313Z,32.08
2022-11-15T09:14:07.045Z,30.90
2022-11-15T09:16:36.890Z,24.77
2022-11-15T09:19:11.721Z,29.77
2022-11-15T09:21:41.849Z,25.90
2022-11-15T09:24:14.375Z,27.37
2022-11-15T09:26:44.147Z,24.53
2022-11-15T09:29:13.874Z,25.63
2022-11-15T09:31:43.852Z,26.47
2022-11-15T09:34:13.561Z,27.53
2022-11-15T09:36:43.301Z,25.00
2022-11-15T09:39:15.723Z,30.07
2022-11-15T09:42:07.189Z,23.35
2022-11-15T09:44:52.353Z,25.27
2022-11-15T09:48:04.581Z,27.83
2022-11-15T09:50:40.847Z,25.30
2022-11-15T09:53:16.629Z,25.50
2022-11-15T09:55:58.955Z,28.15
2022-11-15T09:58:36.616Z,24.60
2022-11-15T10:01:12.110Z,23.40
2022-11-15T10:03:46.701Z,22.05
2022-11-15T10:06:25.877Z,24.77
2022-11-15T10:09:02.078Z,21.90
2022-11-15T10:11:38.311Z,24.58
2022-11-15T10:14:15.345Z,23.17
2022-11-15T10:17:06.384Z,24.83
2022-11-15T10:19:43.108Z,21.33
2022-11-15T10:22:27.157Z,20.77
2022-11-15T10:25:14.559Z,23.63
2022-11-15T10:27:59.046Z,22.83
2022-11-15T10:30:36.619Z,22.10
2022-11-15T10:33:28.055Z,23.52
2022-11-15T10:36:23.312Z,25.73
2022-11-15T10:39:01.505Z,20.08
2022-11-15T10:41:37.062Z,20.15
2022-11-15T10:44:33.721Z,21.98
2022-11-15T10:47:26.179Z,18.33
2022-11-15T10:50:09.672Z,23.15
2022-11-15T10:52:41.620Z,19.03
2022-11-15T10:55:28.652Z,18.70
2022-11-15T10:58:00.599Z,17.83
2022-11-15T11:00:36.829Z,19.50
2022-11-15T11:03:08.515Z,20.10
2022-11-15T11:05:42.525Z,16.33
2022-11-15T11:08:27.248Z,16.20
2022-11-15T11:11:02.569Z,19.13
2022-11-15T11:13:34.959Z,16.50
2022-11-15T11:16:23.222Z,19.92
2022-11-15T11:19:00.346Z,17.70
2022-11-15T11:21:40.545Z,15.80
2022-11-15T11:24:19.856Z,15.98
2022-11-15T11:26:59.625Z,17.77
2022-11-15T11:29:51.339Z,15.40
2022-11-15T11:32:40.899Z,16.20
2022-11-15T11:35:17.789Z,15.63
2022-11-15T11:37:51.517Z,14.35
2022-11-15T11:40:37.158Z,17.63
2022-11-15T11:43:17.350Z,14.10
2022-11-15T11:46:14.001Z,12.75
2022-11-15T11:48:49.120Z,12.68
2022-11-15T11:51:24.632Z,12.57
2022-11-15T11:54:01.335Z,10.32
2022-11-15T11:56:35.625Z,11.88
2022-11-15T11:59:11.146Z,11.70
2022-11-15T12:01:45.870Z,12.55
2022-11-15T12:04:23.413Z,12.73
2022-11-15T12:06:57.857Z,9.77
2022-11-15T12:09:38.070Z,10.98
2022-11-15T12:12:19.719Z,9.40
2022-11-15T12:14:53.390Z,12.07
2022-11-15T12:17:27.564Z,10.15
2022-11-15T12:20:03.187Z,11.27
2022-11-15T12:22:45.447Z,11.50
2022-11-15T12:25:22.606Z,8.68
2022-11-15T12:27:58.268Z,11.18
2022-11-15T12:30:31.947Z,8.35
2022-11-15T12:33:03.627Z,9.23
2022-11-15T12:35:44.026Z,9.27
2022-11-15T12:38:14.804Z,7.63
2022-11-15T12:41:16.851Z,6.72
2022-11-15T12:43:47.981Z,7.00
2022-11-15T12:46:25.791Z,6.75
2022-11-15T12:49:00.667Z,6.60
2022-11-15T12:52:02.995Z,5.95
2022-11-15T12:55:00.376Z,5.00
2022-11-15T12:57:37.377Z,3.85
2022-11-15T13:00:45.063Z,4.82
2022-11-15T13:03:32.959Z,4.72
2022-11-15T13:06:12.693Z,5.90
2022-11-15T13:08:53.895Z,4.38
2022-11-15T13:11:57.048Z,3.22
2022-11-15T13:14:43.679Z,3.90
2022-11-15T13:17:30.863Z,3.65
2022-11-15T13:20:22.090Z,4.70
2022-11-15T13:22:55.752Z,2.80
2022-11-15T13:25:59.937Z,2.72
2022-11-15T13:28:36.664Z,4.18
2022-11-15T13:31:23.346Z,4.75
2022-11-15T13:33:54.061Z,3.38
2022-11-15T13:36:29.953Z,3.83
2022-11-15T13:39:02.767Z,7.95
2022-11-15T13:41:34.147Z,3.03
2022-11-15T13:44:05.836Z,2.90
2022-11-15T13:46:37.063Z,5.23
2022-11-15T13:49:08.619Z,3.45
2022-11-15T13:51:45.876Z,3.17
2022-11-15T13:54:22.276Z,3.15
2022-11-15T13:56:58.603Z,3.13
2022-11-15T13:59:30.782Z,2.38
2022-11-15T14:02:03.171Z,3.55
2022-11-15T14:04:36.033Z,3.08
2022-11-15T14:07:08.516Z,3.60
2022-11-15T14:09:41.364Z,2.90
2022-11-15T14:12:30.342Z,4.10
2022-11-15T14:15:00.940Z,3.63
2022-11-15T14:17:44.486Z,2.90
2022-11-15T14:20:31.995Z,3.95
2022-11-15T14:23:06.464Z,6.30
2022-11-15T14:25:39.040Z,5.60
2022-11-15T14:28:15.550Z,4.22
2022-11-15T14:30:51.271Z,3.80
2022-11-15T14:33:27.111Z,5.73
2022-11-15T14:35:57.143Z,4.53
2022-11-15T14:38:30.783Z,6.93
2022-11-15T14:41:00.852Z,4.23
2022-11-15T14:43:30.634Z,3.97
2022-11-15T14:46:00.526Z,5.10
2022-11-15T14:48:30.582Z,5.65
2022-11-15T14:51:00.808Z,5.20
2022-11-15T14:53:33.149Z,3.20
2022-11-15T14:56:02.901Z,3.95
2022-11-15T14:58:32.857Z,4.03
2022-11-15T15:01:02.874Z,4.85
2022-11-15T15:03:32.739Z,4.18
2022-11-15T15:06:02.503Z,4.95
2022-11-15T15:08:35.221Z,5.27
2022-11-15T15:11:05.435Z,4.57
2022-11-15T15:13:35.209Z,4.43
2022-11-15T15:16:05.147Z,3.90
2022-11-15T15:18:34.943Z,4.20
2022-11-15T15:21:08.213Z,4.97
2022-11-15T15:23:40.711Z,2.67
2022-11-15T15:26:11.695Z,3.17
2022-11-15T15:28:41.710Z,4.55
2022-11-15T15:31:12.667Z,2.80
2022-11-15T15:33:42.430Z,2.80
2022-11-15T15:36:15.103Z,3.08
2022-11-15T15:38:48.017Z,3.47
2022-11-15T15:41:19.724Z,3.50
2022-11-15T15:43:49.525Z,3.50
2022-11-15T15:46:20.883Z,4.53
2022-11-15T15:48:51.157Z,5.17
2022-11-15T15:51:21.127Z,3.67
2022-11-15T15:53:58.184Z,4.20
2022-11-15T15:56:29.480Z,4.23
2022-11-15T15:58:59.255Z,4.13
2022-11-15T16:01:29.063Z,6.60
2022-11-15T16:03:58.889Z,4.50
2022-11-15T16:06:40.397Z,5.65
2022-11-15T16:09:20.203Z,4.33
2022-11-15T16:11:50.916Z,4.33
2022-11-15T16:14:20.709Z,5.00
2022-11-15T16:16:50.531Z,6.03
2022-11-15T16:19:20.314Z,4.90
2022-11-15T16:21:50.113Z,6.07
2022-11-15T16:24:23.648Z,4.23
2022-11-15T16:26:54.830Z,5.13
2022-11-15T16:29:24.574Z,4.37
2022-11-15T16:31:54.404Z,4.75
2022-11-15T16:34:30.014Z,5.00
2022-11-15T16:37:00.880Z,6.57
2022-11-15T16:39:34.095Z,5.97
2022-11-15T16:42:03.892Z,7.30
2022-11-15T16:44:33.746Z,5.95
2022-11-15T16:47:05.143Z,6.63
2022-11-15T16:49:34.926Z,6.87
2022-11-15T16:52:04.659Z,5.50
2022-11-15T16:54:37.031Z,8.17
2022-11-15T16:57:07.284Z,8.57
2022-11-15T16:59:38.454Z,7.17
2022-11-15T17:02:13.755Z,7.83
2022-11-15T17:04:43.734Z,7.93
2022-11-15T17:07:13.599Z,7.73
2022-11-15T17:09:46.063Z,5.40
2022-11-15T17:12:17.140Z,7.13
2022-11-15T17:14:47.293Z,9.77
2022-11-15T17:17:17.194Z,8.23
2022-11-15T17:19:46.972Z,6.80
2022-11-15T17:22:16.847Z,5.90
2022-11-15T17:24:49.390Z,6.23
2022-11-15T17:27:22.185Z,6.23
2022-11-15T17:29:51.924Z,7.40
2022-11-15T17:32:21.664Z,6.67
2022-11-15T17:34:51.401Z,5.93
2022-11-15T17:37:21.177Z,6.07
2022-11-15T17:39:53.529Z,7.13
2022-11-15T17:42:23.355Z,5.87
2022-11-15T17:44:53.122Z,5.13
2022-11-15T17:47:22.820Z,7.77
2022-11-15T17:49:52.572Z,7.97
2022-11-15T17:52:22.319Z,6.37
2022-11-15T17:54:54.686Z,5.63
2022-11-15T17:57:24.437Z,6.47
2022-11-15T17:59:54.135Z,5.80
2022-11-15T18:02:23.859Z,6.00
2022-11-15T18:04:53.731Z,9.03
2022-11-15T18:07:23.562Z,8.70
2022-11-15T18:09:55.960Z,9.37
2022-11-15T18:12:25.664Z,9.27
2022-11-15T18:14:55.367Z,8.83
2022-11-15T18:17:25.079Z,8.07
2022-11-15T18:19:54.870Z,8.20
2022-11-15T18:22:25.164Z,6.18
2022-11-15T18:24:57.575Z,6.73
2022-11-15T18:27:27.289Z,4.50
2022-11-15T18:29:56.987Z,5.17
2022-11-15T18:32:26.819Z,5.37
2022-11-15T18:34:56.563Z,4.80
2022-11-15T18:37:26.419Z,5.07
2022-11-15T18:39:58.935Z,5.93
2022-11-15T18:42:30.715Z,5.65
2022-11-15T18:45:01.914Z,6.77
2022-11-15T18:47:32.140Z,5.90
2022-11-15T18:50:01.936Z,5.87
2022-11-15T18:52:31.712Z,6.07
2022-11-15T18:55:04.097Z,7.33
2022-11-15T18:57:34.203Z,5.27
2022-11-15T19:00:03.981Z,8.35
2022-11-15T19:02:33.763Z,4.60
2022-11-15T19:05:03.648Z,4.43
2022-11-15T19:07:33.659Z,4.80
2022-11-15T19:10:06.861Z,5.53
2022-11-15T19:12:38.939Z,4.28
2022-11-15T19:15:10.488Z,4.93
2022-11-15T19:17:41.319Z,4.93
2022-11-15T19:20:12.248Z,4.83
2022-11-15T19:22:42.123Z,4.97
2022-11-15T19:25:14.489Z,5.80
2022-11-15T19:27:44.252Z,4.37
2022-11-15T19:30:15.269Z,4.77
2022-11-15T19:32:45.005Z,3.97
2022-11-15T19:35:14.721Z,3.70
2022-11-15T19:37:44.642Z,4.37
2022-11-15T19:40:17.656Z,4.90
2022-11-15T19:42:47.562Z,6.40
2022-11-15T19:45:17.439Z,4.67
2022-11-15T19:47:48.373Z,4.10
2022-11-15T19:50:18.311Z,4.50
2022-11-15T19:52:48.215Z,6.37
2022-11-15T19:55:21.420Z,5.03
2022-11-15T19:57:51.732Z,3.80
2022-11-15T20:00:22.810Z,4.07
2022-11-15T20:02:52.572Z,4.37
2022-11-15T20:05:22.526Z,4.80
2022-11-15T20:07:53.476Z,3.50
2022-11-15T20:10:25.864Z,5.00
2022-11-15T20:12:55.599Z,4.25
2022-11-15T20:15:25.340Z,5.13
2022-11-15T20:17:55.087Z,5.60
2022-11-15T20:20:24.795Z,4.07
2022-11-15T20:22:55.067Z,4.00
2022-11-15T20:25:27.478Z,4.70
2022-11-15T20:27:57.226Z,4.27
2022-11-15T20:30:26.973Z,4.27
2022-11-15T20:32:56.684Z,3.83
2022-11-15T20:35:26.583Z,4.50
2022-11-15T20:37:56.447Z,4.37
2022-11-15T20:40:28.786Z,3.80
2022-11-15T20:42:58.601Z,4.70
2022-11-15T20:45:28.537Z,4.20
2022-11-15T20:47:58.913Z,5.18
2022-11-15T20:50:42.591Z,4.93
2022-11-15T20:53:14.722Z,4.88
2022-11-15T20:55:51.172Z,7.13
2022-11-15T20:58:21.178Z,4.10
2022-11-15T21:00:51.205Z,4.50
2022-11-15T21:03:21.068Z,5.53
2022-11-15T21:05:50.770Z,3.87
2022-11-15T21:08:20.482Z,4.27
2022-11-15T21:11:08.931Z,3.90
2022-11-15T21:13:38.993Z,5.32
2022-11-15T21:16:09.839Z,5.33
2022-11-15T21:18:39.822Z,4.93
2022-11-15T21:21:09.652Z,3.70
2022-11-15T21:23:40.919Z,4.22
2022-11-15T21:26:13.420Z,4.90
2022-11-15T21:28:43.498Z,4.27
2022-11-15T21:31:13.343Z,3.73
2022-11-15T21:33:43.094Z,4.10
2022-11-15T21:36:12.994Z,4.90
2022-11-15T21:38:42.847Z,4.97
2022-11-15T21:41:15.368Z,5.03
2022-11-15T21:43:45.031Z,5.10
2022-11-15T21:46:14.836Z,4.05
2022-11-15T21:48:44.583Z,5.03
2022-11-15T21:51:15.888Z,4.45
2022-11-15T21:53:45.639Z,5.23
2022-11-15T21:56:18.776Z,4.73
2022-11-15T21:58:48.816Z,4.80
2022-11-15T22:01:31.007Z,6.20
2022-11-15T22:04:01.194Z,6.17
2022-11-15T22:06:30.927Z,5.28
2022-11-15T22:09:01.236Z,6.17
2022-11-15T22:11:33.904Z,6.17
2022-11-15T22:14:04.473Z,5.93
2022-11-15T22:16:35.719Z,6.10
2022-11-15T22:19:05.663Z,5.23
2022-11-15T22:21:38.180Z,7.00
2022-11-15T22:24:10.028Z,5.78
2022-11-15T22:26:42.402Z,6.33
2022-11-15T22:29:12.097Z,5.50
2022-11-15T22:31:41.831Z,6.00
2022-11-15T22:34:11.567Z,6.20
2022-11-15T22:37:13.226Z,6.50
2022-11-15T22:39:35.086Z,6.53
2022-11-15T22:42:07.600Z,5.20
2022-11-15T22:44:37.336Z,6.20
2022-11-15T22:47:07.140Z,5.47
2022-11-15T22:49:36.891Z,5.43
2022-11-15T22:52:06.717Z,5.80
2022-11-15T22:54:36.431Z,5.33
2022-11-15T22:57:08.962Z,6.60
2022-11-15T22:59:38.749Z,6.73
2022-11-15T23:02:08.464Z,6.70
2022-11-15T23:04:38.171Z,5.15
2022-11-15T23:07:07.968Z,7.43
2022-11-15T23:09:37.722Z,8.00
2022-11-15T23:12:40.408Z,6.00
2022-11-15T23:15:11.063Z,7.27
2022-11-15T23:17:40.808Z,5.20
2022-11-15T23:20:36.789Z,7.17
2022-11-15T23:22:59.860Z,8.30
2022-11-15T23:25:29.569Z,7.17
2022-11-15T23:28:01.872Z,7.07
2022-11-15T23:30:43.991Z,6.70
2022-11-15T23:33:44.794Z,6.60
2022-11-15T23:36:14.471Z,7.20
2022-11-15T23:38:44.183Z,7.33
2022-11-15T23:41:13.931Z,7.97
2022-11-15T23:43:46.230Z,8.03
2022-11-15T23:46:16.027Z,8.47
2022-11-15T23:48:46.450Z,7.57
2022-11-15T23:51:16.172Z,7.53
2022-11-15T23:53:45.858Z,6.97
2022-11-15T23:56:17.254Z,6.80
2022-11-15T23:58:50.041Z,7.40
